Time;durP1;ratioP1;P1;durP2;ratioP2;P2;SDS_P1;SDS_P2;PMS_P1;PMS_P2;Temp;Humidity;BMP_temperature;BMP_pressure;BME280_temperature;BME280_humidity;BME280_pressure;Samples;Min_cycle;Max_cycle;Signal;HPM_P1;HPM_P2
2022/10/28 00:01:04;;;;;;;17.27;8.50;;;;;;;15.02;100.00;101660.44;5083521;28;20009;-80
2022/10/28 00:03:29;;;;;;;14.40;7.97;;;;;;;14.99;100.00;101657.19;5067171;28;20560;-80
2022/10/28 00:06:01;;;;;;;18.98;9.15;;;;;;;14.92;100.00;101664.81;5085884;28;20108;-80
2022/10/28 00:08:26;;;;;;;17.13;8.60;;;;;;;14.87;100.00;101656.38;5074988;28;20035;-81
2022/10/28 00:10:53;;;;;;;19.50;8.85;;;;;;;14.80;100.00;101662.25;5068719;28;20024;-80
2022/10/28 00:13:19;;;;;;;15.85;8.52;;;;;;;14.79;100.00;101658.75;5063138;28;20024;-80
2022/10/28 00:15:44;;;;;;;15.52;8.27;;;;;;;14.73;100.00;101649.50;5068619;28;20031;-80
2022/10/28 00:18:10;;;;;;;18.10;8.20;;;;;;;14.69;100.00;101657.81;5068723;28;20029;-80
2022/10/28 00:20:35;;;;;;;15.43;8.30;;;;;;;14.60;100.00;101653.22;5068252;28;20036;-80
2022/10/28 00:23:01;;;;;;;17.17;9.07;;;;;;;14.60;100.00;101643.47;5068080;28;20049;-80
2022/10/28 00:25:26;;;;;;;17.70;9.05;;;;;;;14.55;100.00;101639.50;5067945;28;20025;-81
2022/10/28 00:27:51;;;;;;;17.33;9.00;;;;;;;14.54;100.00;101648.41;5066087;28;20052;-80
2022/10/28 00:30:17;;;;;;;17.60;9.02;;;;;;;14.49;100.00;101645.28;5096046;28;20036;-80
2022/10/28 00:32:42;;;;;;;17.20;8.88;;;;;;;14.49;100.00;101651.44;5069064;28;20464;-80
2022/10/28 00:35:07;;;;;;;17.98;8.68;;;;;;;14.46;100.00;101640.22;5067357;28;20101;-80
2022/10/28 00:37:33;;;;;;;18.63;8.65;;;;;;;14.41;100.00;101637.91;5068453;28;20032;-80
2022/10/28 00:39:58;;;;;;;17.00;8.35;;;;;;;14.36;100.00;101638.25;5068116;28;20478;-80
2022/10/28 00:42:23;;;;;;;13.98;8.38;;;;;;;14.33;100.00;101635.00;5067615;28;20025;-80
2022/10/28 00:44:52;;;;;;;16.60;8.45;;;;;;;14.29;100.00;101628.25;5101081;28;20031;-80
2022/10/28 00:47:25;;;;;;;13.60;8.18;;;;;;;14.27;100.00;101641.59;5061586;28;20035;-80
2022/10/28 00:49:56;;;;;;;16.92;8.30;;;;;;;14.20;100.00;101643.03;5068158;28;20028;-80
2022/10/28 00:52:24;;;;;;;17.45;8.98;;;;;;;14.17;100.00;101635.34;5067287;28;20127;-80
2022/10/28 00:54:52;;;;;;;14.02;7.97;;;;;;;14.15;100.00;101634.63;5068133;28;20029;-80
2022/10/28 00:57:22;;;;;;;18.65;8.35;;;;;;;14.08;100.00;101630.75;5067020;28;20078;-80
2022/10/28 00:59:50;;;;;;;16.90;9.02;;;;;;;14.01;100.00;101618.94;5067550;28;20020;-82
2022/10/28 01:02:16;;;;;;;20.52;8.82;;;;;;;14.02;100.00;101620.63;5066667;28;20043;-79
2022/10/28 01:04:42;;;;;;;13.80;8.70;;;;;;;13.99;100.00;101615.56;5100979;28;20516;-80
2022/10/28 01:07:09;;;;;;;14.13;8.40;;;;;;;14.01;100.00;101611.84;5087230;28;20538;-80
2022/10/28 01:09:35;;;;;;;15.65;8.50;;;;;;;13.97;100.00;101612.19;5071790;28;20610;-80
2022/10/28 01:12:16;;;;;;;18.65;8.85;;;;;;;14.01;100.00;101603.06;5070699;28;20016;-80
2022/10/28 01:14:51;;;;;;;16.92;8.30;;;;;;;13.96;100.00;101610.50;5105398;28;20107;-80
2022/10/28 01:17:41;;;;;;;17.45;8.25;;;;;;;13.93;100.00;101616.03;5070192;28;20107;-80
2022/10/28 01:20:53;;;;;;;14.20;8.05;;;;;;;13.91;100.00;101610.84;5066268;28;20023;-80
2022/10/28 01:24:07;;;;;;;17.63;8.25;;;;;;;13.93;100.00;101613.38;5071746;28;20143;-80
2022/10/28 01:27:04;;;;;;;15.93;8.77;;;;;;;13.82;100.00;101611.53;5065524;28;20089;-80
2022/10/28 01:29:52;;;;;;;17.33;8.60;;;;;;;13.85;100.00;101613.13;5037965;28;20496;-80
2022/10/28 01:32:25;;;;;;;15.68;7.78;;;;;;;13.81;100.00;101601.94;5081073;28;20063;-80
2022/10/28 01:35:07;;;;;;;15.55;8.35;;;;;;;13.76;100.00;101602.28;5090852;28;20023;-80
2022/10/28 01:38:07;;;;;;;21.48;8.60;;;;;;;13.76;100.00;101599.63;5072497;28;20035;-80
2022/10/28 01:40:42;;;;;;;11.75;7.80;;;;;;;13.68;100.00;101594.09;5039907;28;20024;-80
2022/10/28 01:43:23;;;;;;;14.52;8.27;;;;;;;13.65;100.00;101596.97;5071309;28;20029;-79
2022/10/28 01:45:59;;;;;;;16.52;8.52;;;;;;;13.66;100.00;101589.88;5069693;28;20024;-80
2022/10/28 01:48:34;;;;;;;15.93;8.20;;;;;;;13.67;100.00;101596.84;5071508;28;20068;-80
2022/10/28 01:51:37;;;;;;;18.80;7.80;;;;;;;13.71;100.00;101599.13;5104130;28;20467;-80
2022/10/28 01:54:06;;;;;;;21.67;8.00;;;;;;;13.65;100.00;101596.97;4970694;28;20037;-80
2022/10/28 01:56:35;;;;;;;18.90;7.88;;;;;;;13.65;100.00;101599.59;5056255;28;20416;-79
2022/10/28 01:59:04;;;;;;;16.17;7.53;;;;;;;13.70;100.00;101596.59;5071304;28;20099;-79
2022/10/28 02:01:31;;;;;;;15.13;7.68;;;;;;;13.70;100.00;101593.97;5070872;28;20032;-80
2022/10/28 02:03:57;;;;;;;19.75;7.60;;;;;;;13.77;100.00;101595.19;5070280;28;20028;-80
2022/10/28 02:06:27;;;;;;;15.00;7.13;;;;;;;13.82;100.00;101592.19;5090935;28;20035;-80
2022/10/28 02:09:15;;;;;;;17.35;7.35;;;;;;;13.85;100.00;101594.59;5074962;28;20403;-81
2022/10/28 02:11:56;;;;;;;14.50;6.97;;;;;;;13.92;100.00;101593.16;5067471;28;20037;-79
2022/10/28 02:14:28;;;;;;;14.95;6.70;;;;;;;13.93;100.00;101589.56;5066661;28;20025;-79
2022/10/28 02:17:06;;;;;;;22.27;7.00;;;;;;;13.98;100.00;101593.53;5081035;28;20025;-82
2022/10/28 02:19:54;;;;;;;21.70;7.45;;;;;;;14.07;100.00;101586.72;5070357;28;20051;-78
2022/10/28 02:22:35;;;;;;;14.18;5.97;;;;;;;14.10;100.00;101589.97;5069891;28;20382;-81
2022/10/28 02:25:13;;;;;;;14.45;6.03;;;;;;;14.19;100.00;101587.56;5070462;28;20040;-79
2022/10/28 02:27:48;;;;;;;15.40;6.10;;;;;;;14.26;100.00;101586.97;5066942;28;20033;-79
2022/10/28 02:30:21;;;;;;;17.55;5.97;;;;;;;14.26;100.00;101581.69;5072693;28;20036;-79
2022/10/28 02:32:54;;;;;;;12.98;6.10;;;;;;;14.28;100.00;101579.75;5091120;28;20511;-81
2022/10/28 02:35:32;;;;;;;16.75;6.45;;;;;;;14.32;100.00;101578.56;5073424;28;20476;-81
2022/10/28 02:38:01;;;;;;;16.67;5.70;;;;;;;14.37;100.00;101578.19;5102700;28;20056;-81
2022/10/28 02:40:29;;;;;;;14.40;5.55;;;;;;;14.40;100.00;101580.59;5069035;28;20116;-79
2022/10/28 02:43:01;;;;;;;14.30;5.85;;;;;;;14.43;100.00;101579.56;5070036;28;20472;-81
2022/10/28 02:45:31;;;;;;;14.80;5.53;;;;;;;14.49;100.00;101584.38;5064975;28;20021;-79
2022/10/28 02:48:05;;;;;;;16.08;5.82;;;;;;;14.52;100.00;101584.16;5055453;28;20021;-81
2022/10/28 02:50:38;;;;;;;16.42;6.45;;;;;;;14.67;100.00;101590.88;5064361;28;20070;-81
2022/10/28 02:53:16;;;;;;;11.60;5.30;;;;;;;14.71;100.00;101585.19;5049932;28;20075;-81
2022/10/28 02:55:44;;;;;;;17.40;5.82;;;;;;;14.72;100.00;101588.69;5049556;28;20017;-81
2022/10/28 02:58:10;;;;;;;16.80;5.53;;;;;;;14.72;100.00;101578.94;5065207;28;20048;-81
2022/10/28 03:00:35;;;;;;;16.05;5.43;;;;;;;14.71;100.00;101571.13;5080874;28;20115;-81
2022/10/28 03:03:01;;;;;;;18.05;5.28;;;;;;;14.72;100.00;101567.50;5067738;28;20115;-81
2022/10/28 03:05:26;;;;;;;19.58;5.38;;;;;;;14.70;100.00;101572.06;5110374;27;20028;-80
2022/10/28 03:07:56;;;;;;;16.08;5.35;;;;;;;14.69;100.00;101573.03;5086247;28;20024;-79
2022/10/28 03:10:22;;;;;;;12.93;5.75;;;;;;;14.72;100.00;101570.16;5070020;28;20032;-79
2022/10/28 03:12:47;;;;;;;14.18;5.85;;;;;;;14.68;100.00;101566.06;5070555;28;20548;-82
2022/10/28 03:15:13;;;;;;;13.82;5.32;;;;;;;14.70;100.00;101559.69;5102630;28;20028;-80
2022/10/28 03:17:39;;;;;;;19.05;6.13;;;;;;;14.70;100.00;101570.28;5068538;28;20533;-79
2022/10/28 03:20:05;;;;;;;15.80;5.30;;;;;;;14.70;100.00;101570.28;5068602;28;20238;-79
2022/10/28 03:22:30;;;;;;;15.02;5.38;;;;;;;14.75;99.68;101564.59;5049417;28;20137;-79
2022/10/28 03:24:58;;;;;;;14.55;5.45;;;;;;;14.74;99.68;101571.72;5049645;28;20028;-79
2022/10/28 03:27:23;;;;;;;21.17;5.63;;;;;;;14.73;99.44;101562.06;5068520;28;20024;-80
2022/10/28 03:29:49;;;;;;;14.48;5.13;;;;;;;14.73;99.57;101570.03;5070170;28;20548;-80
2022/10/28 03:32:14;;;;;;;15.07;5.10;;;;;;;14.74;99.70;101569.06;5100115;28;20304;-79
2022/10/28 03:34:40;;;;;;;16.17;5.45;;;;;;;14.77;99.55;101565.31;5069844;28;20086;-79
2022/10/28 03:37:05;;;;;;;16.00;5.22;;;;;;;14.74;99.77;101565.56;5101651;28;20048;-82
2022/10/28 03:39:31;;;;;;;16.00;6.07;;;;;;;14.79;99.41;101563.38;5094798;28;20020;-80
2022/10/28 03:41:56;;;;;;;15.63;5.03;;;;;;;14.79;99.20;101562.53;5069206;28;20036;-79
2022/10/28 03:44:21;;;;;;;16.25;5.18;;;;;;;14.79;99.30;101558.09;5069352;28;20070;-79
2022/10/28 03:46:47;;;;;;;14.18;4.93;;;;;;;14.79;98.98;101557.25;5068737;28;20099;-80
2022/10/28 03:49:12;;;;;;;13.07;5.35;;;;;;;14.79;99.07;101555.44;5067560;28;20593;-79
2022/10/28 03:51:37;;;;;;;17.10;5.70;;;;;;;14.82;98.90;101552.56;5069354;28;20039;-80
2022/10/28 03:54:03;;;;;;;15.95;5.72;;;;;;;14.83;98.88;101554.25;5067681;28;20380;-80
2022/10/28 03:56:28;;;;;;;12.45;5.07;;;;;;;14.81;98.56;101557.97;5075861;28;20386;-82
2022/10/28 03:58:53;;;;;;;13.60;5.55;;;;;;;14.80;98.68;101559.78;5087981;28;20025;-80
2022/10/28 04:01:19;;;;;;;14.77;5.43;;;;;;;14.84;98.54;101561.25;5079983;28;20027;-80
2022/10/28 04:03:44;;;;;;;13.80;5.03;;;;;;;14.92;98.45;101556.16;5070134;28;20033;-80
2022/10/28 04:06:09;;;;;;;15.10;5.55;;;;;;;14.90;98.12;101560.75;5119830;27;20456;-80
2022/10/28 04:08:36;;;;;;;15.43;5.82;;;;;;;14.91;97.96;101558.94;5090180;28;20103;-80
2022/10/28 04:11:01;;;;;;;15.68;6.03;;;;;;;14.88;97.90;101554.72;5074104;28;20031;-80
2022/10/28 04:13:26;;;;;;;12.98;5.60;;;;;;;14.92;97.63;101548.22;5062442;28;20032;-80
2022/10/28 04:15:52;;;;;;;15.90;5.30;;;;;;;14.91;97.51;101562.41;5068522;28;20021;-80
2022/10/28 04:18:17;;;;;;;14.80;5.43;;;;;;;14.92;97.91;101563.25;5069021;28;20099;-80
2022/10/28 04:20:45;;;;;;;15.23;5.85;;;;;;;14.89;97.81;101569.66;5068817;28;20032;-80
2022/10/28 04:23:14;;;;;;;14.45;5.45;;;;;;;14.88;97.76;101570.63;5068710;28;20113;-80
2022/10/28 04:25:40;;;;;;;15.52;5.15;;;;;;;14.89;98.07;101567.00;5069825;28;20465;-80
2022/10/28 04:28:06;;;;;;;14.15;5.68;;;;;;;14.85;97.94;101560.28;5065736;28;20541;-80
2022/10/28 04:30:31;;;;;;;12.85;5.38;;;;;;;14.87;98.09;101566.28;5064771;28;20028;-80
2022/10/28 04:32:56;;;;;;;14.07;5.10;;;;;;;14.81;98.16;101566.78;5068816;28;20096;-79
2022/10/28 04:35:22;;;;;;;12.52;5.22;;;;;;;14.79;98.46;101567.84;5068227;28;20050;-80
2022/10/28 04:37:48;;;;;;;14.63;5.30;;;;;;;14.77;98.50;101561.81;5068996;28;20021;-80
2022/10/28 04:40:13;;;;;;;16.33;5.88;;;;;;;14.78;98.20;101566.16;5068108;28;20032;-80
2022/10/28 04:42:38;;;;;;;15.40;5.60;;;;;;;14.75;98.38;101556.66;5068266;28;20067;-80
2022/10/28 04:45:04;;;;;;;14.02;5.43;;;;;;;14.75;98.21;101561.94;5067042;28;20036;-80
2022/10/28 04:47:29;;;;;;;17.90;5.80;;;;;;;14.72;98.02;101556.91;5071649;28;20024;-80
2022/10/28 04:49:56;;;;;;;21.08;5.25;;;;;;;14.74;98.10;101558.47;5072191;28;20075;-80
2022/10/28 04:52:21;;;;;;;16.33;5.72;;;;;;;14.73;98.56;101562.06;5071297;28;20063;-80
2022/10/28 04:54:46;;;;;;;17.33;5.70;;;;;;;14.73;98.29;101559.44;5072716;28;20033;-83
2022/10/28 04:57:12;;;;;;;15.60;5.53;;;;;;;14.73;98.27;101555.94;5069530;28;20024;-81
2022/10/28 04:59:37;;;;;;;14.55;5.82;;;;;;;14.71;98.26;101556.06;5073020;28;20052;-81
2022/10/28 05:02:02;;;;;;;16.95;5.78;;;;;;;14.71;98.24;101555.22;5068108;28;20650;-81
2022/10/28 05:04:28;;;;;;;15.70;5.43;;;;;;;14.72;98.23;101556.91;5075911;28;20073;-81
2022/10/28 05:06:53;;;;;;;20.23;5.55;;;;;;;14.72;98.47;101548.97;5093090;28;20028;-81
2022/10/28 05:09:18;;;;;;;18.77;5.57;;;;;;;14.73;98.18;101553.28;5091222;28;20024;-81
2022/10/28 05:11:44;;;;;;;15.88;5.13;;;;;;;14.73;98.11;101559.44;5092040;28;20487;-80
2022/10/28 05:14:12;;;;;;;14.13;5.60;;;;;;;14.72;97.95;101564.84;5091310;28;20052;-79
2022/10/28 05:16:38;;;;;;;17.13;5.45;;;;;;;14.70;98.12;101564.97;5092698;28;20383;-80
2022/10/28 05:19:03;;;;;;;16.15;5.22;;;;;;;14.69;97.97;101567.75;5067183;28;20048;-79
2022/10/28 05:21:29;;;;;;;17.35;6.20;;;;;;;14.69;98.36;101567.75;5082088;28;20032;-80
2022/10/28 05:23:57;;;;;;;19.80;5.22;;;;;;;14.67;98.23;101559.09;5092340;28;20040;-80
2022/10/28 05:26:22;;;;;;;20.58;5.88;;;;;;;14.67;98.03;101553.78;5092826;28;20107;-80
2022/10/28 05:28:51;;;;;;;16.23;6.13;;;;;;;14.63;98.20;101558.47;5091585;28;20102;-80
2022/10/28 05:31:17;;;;;;;19.23;6.13;;;;;;;14.67;97.92;101545.84;5069995;28;20088;-80
2022/10/28 05:33:42;;;;;;;20.63;5.50;;;;;;;14.66;98.01;101546.81;5069791;28;20415;-81
2022/10/28 05:36:08;;;;;;;19.08;6.13;;;;;;;14.67;97.93;101551.97;5054011;28;20029;-81
2022/10/28 05:38:33;;;;;;;13.85;5.15;;;;;;;14.67;98.24;101544.03;5065670;28;20075;-81
2022/10/28 05:40:59;;;;;;;13.32;5.30;;;;;;;14.67;97.98;101556.44;5065989;28;20377;-81
2022/10/28 05:43:24;;;;;;;20.45;5.82;;;;;;;14.68;98.04;101545.72;5071204;28;20500;-81
2022/10/28 05:45:56;;;;;;;18.70;5.50;;;;;;;14.69;98.02;101557.16;5070759;28;20103;-81
2022/10/28 05:48:23;;;;;;;13.30;5.47;;;;;;;14.69;97.68;101543.91;5069415;28;20163;-81
2022/10/28 05:50:48;;;;;;;18.30;5.47;;;;;;;14.70;97.50;101546.44;5066659;28;20047;-81
2022/10/28 05:53:14;;;;;;;18.75;5.38;;;;;;;14.68;97.72;101544.88;5089169;28;20077;-81
2022/10/28 05:55:39;;;;;;;14.25;6.07;;;;;;;14.66;97.49;101538.84;5089569;28;20031;-81
2022/10/28 05:58:05;;;;;;;23.08;6.03;;;;;;;14.67;97.58;101553.78;5090096;28;20031;-81
2022/10/28 06:00:30;;;;;;;16.00;6.10;;;;;;;14.66;97.48;101544.16;5084924;28;20028;-81
2022/10/28 06:03:10;;;;;;;20.33;5.65;;;;;;;14.67;97.78;101548.47;5071424;28;20024;-81
2022/10/28 06:05:44;;;;;;;18.45;5.63;;;;;;;14.65;97.98;101550.41;5084377;28;20040;-81
2022/10/28 06:08:12;;;;;;;18.77;5.90;;;;;;;14.61;97.74;101548.97;5090220;28;20031;-81
2022/10/28 06:10:38;;;;;;;20.55;5.20;;;;;;;14.61;97.87;101549.81;5058004;28;20056;-81
2022/10/28 06:13:04;;;;;;;17.65;6.25;;;;;;;14.58;98.28;101543.94;5051247;28;20454;-81
2022/10/28 06:15:30;;;;;;;18.75;6.00;;;;;;;14.61;97.79;101556.91;5084577;28;20073;-81
2022/10/28 06:17:58;;;;;;;14.60;5.68;;;;;;;14.60;97.97;101560.53;5050614;28;20033;-81
2022/10/28 06:20:24;;;;;;;16.10;6.68;;;;;;;14.60;97.97;101555.25;5053924;28;20017;-81
2022/10/28 06:22:51;;;;;;;14.15;5.60;;;;;;;14.60;97.78;101563.19;5065160;28;20079;-81
2022/10/28 06:25:17;;;;;;;15.93;5.53;;;;;;;14.61;97.82;101564.88;5069879;28;20070;-81
2022/10/28 06:27:43;;;;;;;23.02;6.28;;;;;;;14.58;97.65;101550.06;5070401;28;20492;-81
2022/10/28 06:30:08;;;;;;;21.02;6.00;;;;;;;14.58;97.93;101557.16;5084117;28;20058;-82
2022/10/28 06:32:34;;;;;;;14.55;6.07;;;;;;;14.55;97.87;101554.75;5090458;28;20380;-81
2022/10/28 06:34:59;;;;;;;15.90;5.63;;;;;;;14.57;97.95;101558.13;5073484;28;20047;-81
2022/10/28 06:37:28;;;;;;;18.17;6.07;;;;;;;14.59;98.03;101550.91;5070282;28;20024;-81
2022/10/28 06:39:53;;;;;;;18.67;6.10;;;;;;;14.59;97.91;101550.91;5070433;28;20505;-81
2022/10/28 06:42:19;;;;;;;22.77;6.32;;;;;;;14.59;97.98;101556.22;5068976;28;20035;-81
2022/10/28 06:44:44;;;;;;;14.45;5.85;;;;;;;14.58;98.19;101554.53;5069271;28;20119;-81
2022/10/28 06:47:10;;;;;;;15.23;6.10;;;;;;;14.56;98.24;101551.16;5070769;28;20678;-81
2022/10/28 06:49:35;;;;;;;15.95;6.43;;;;;;;14.58;98.32;101554.53;5069889;28;20028;-81
2022/10/28 06:52:01;;;;;;;17.75;6.45;;;;;;;14.56;98.38;101551.16;5070635;28;20544;-81
2022/10/28 06:54:26;;;;;;;15.18;6.20;;;;;;;14.58;98.28;101558.00;5102737;28;20066;-81
2022/10/28 06:56:51;;;;;;;17.52;6.60;;;;;;;14.58;98.56;101555.38;5070042;28;20021;-81
2022/10/28 06:59:16;;;;;;;16.20;6.20;;;;;;;14.60;98.30;101557.88;5068298;28;20021;-81
2022/10/28 07:01:42;;;;;;;19.90;6.28;;;;;;;14.61;98.52;101559.56;5067894;28;20101;-81
2022/10/28 07:04:11;;;;;;;20.15;6.45;;;;;;;14.64;98.40;101556.69;5069543;28;20024;-81
2022/10/28 07:06:37;;;;;;;19.08;7.32;;;;;;;14.68;98.30;101560.75;5069203;28;20017;-81
2022/10/28 07:09:02;;;;;;;16.23;6.40;;;;;;;14.69;98.29;101552.69;5071500;28;20570;-82
2022/10/28 07:11:28;;;;;;;21.27;7.28;;;;;;;14.74;98.26;101565.56;5069712;28;20050;-82
2022/10/28 07:13:53;;;;;;;19.52;7.20;;;;;;;14.77;97.93;101560.03;5083480;28;20047;-82
2022/10/28 07:16:18;;;;;;;16.55;6.50;;;;;;;14.82;98.04;101551.72;5068535;28;20099;-87
2022/10/28 07:18:44;;;;;;;18.40;6.50;;;;;;;14.89;97.71;101552.91;5067658;28;20020;-82
2022/10/28 07:21:09;;;;;;;17.02;6.47;;;;;;;14.96;97.60;101559.41;5070613;28;20023;-82
2022/10/28 07:23:35;;;;;;;18.13;6.90;;;;;;;14.99;97.34;101565.28;5082000;28;20044;-81
2022/10/28 07:26:00;;;;;;;17.27;6.85;;;;;;;15.04;97.47;101571.06;5073058;28;20020;-81
2022/10/28 07:28:26;;;;;;;19.23;7.05;;;;;;;15.11;97.08;101574.03;5088991;28;20471;-81
2022/10/28 07:30:52;;;;;;;16.15;6.60;;;;;;;15.20;97.06;101585.69;5070861;28;20073;-83
2022/10/28 07:33:18;;;;;;;21.92;6.63;;;;;;;15.24;96.61;101573.91;5069626;28;20400;-83
2022/10/28 07:35:43;;;;;;;21.17;6.60;;;;;;;15.28;96.41;101585.94;5065183;28;20029;-83
2022/10/28 07:38:12;;;;;;;22.15;6.82;;;;;;;15.33;96.15;101584.59;5050009;28;20428;-82
2022/10/28 07:40:37;;;;;;;17.40;6.20;;;;;;;15.39;96.13;101577.94;5050679;28;20480;-83
2022/10/28 07:43:02;;;;;;;24.50;6.95;;;;;;;15.45;95.71;101572.13;5050309;28;20027;-83
2022/10/28 07:45:28;;;;;;;22.15;6.65;;;;;;;15.54;95.62;101568.69;5049502;28;20028;-82
2022/10/28 07:47:53;;;;;;;15.93;6.10;;;;;;;15.66;95.18;101564.22;5071593;28;20111;-83
2022/10/28 07:50:19;;;;;;;17.98;6.25;;;;;;;15.73;94.93;101556.59;5068405;28;20112;-83
2022/10/28 07:52:44;;;;;;;16.10;6.10;;;;;;;15.83;94.30;101550.38;5063275;28;20021;-83
2022/10/28 07:55:12;;;;;;;19.02;6.15;;;;;;;15.93;93.75;101548.59;5049590;28;20561;-82
2022/10/28 07:57:38;;;;;;;18.50;6.07;;;;;;;16.02;93.78;101549.66;5050264;28;20033;-83
2022/10/28 08:00:05;;;;;;;21.05;6.38;;;;;;;16.10;92.45;101555.16;5049072;28;20059;-82
2022/10/28 08:02:30;;;;;;;15.70;6.35;;;;;;;16.23;92.76;101557.59;5068004;28;20028;-83
2022/10/28 08:05:00;;;;;;;18.77;6.22;;;;;;;16.34;91.73;101559.28;5075371;28;20510;-82
2022/10/28 08:07:26;;;;;;;17.08;5.70;;;;;;;16.43;92.21;101558.53;5067500;28;20074;-83
2022/10/28 08:09:51;;;;;;;18.00;5.63;;;;;;;16.51;91.53;101559.53;5061829;28;20021;-83
2022/10/28 08:12:17;;;;;;;22.60;6.68;;;;;;;16.65;90.85;101558.31;5060283;28;20027;-83
2022/10/28 08:14:42;;;;;;;18.23;5.93;;;;;;;16.74;90.85;101567.31;5064241;28;20093;-80
2022/10/28 08:17:07;;;;;;;17.63;5.40;;;;;;;16.84;89.64;101579.66;5067310;28;20028;-81
2022/10/28 08:19:33;;;;;;;17.75;5.03;;;;;;;16.92;89.52;101582.47;5067048;28;20020;-80
2022/10/28 08:21:58;;;;;;;19.23;5.35;;;;;;;16.95;89.67;101580.53;5067786;28;20047;-81
2022/10/28 08:24:24;;;;;;;18.98;5.82;;;;;;;16.99;89.44;101581.94;5069277;28;20039;-80
2022/10/28 08:26:49;;;;;;;19.60;5.88;;;;;;;17.04;89.17;101580.53;5061111;28;20021;-81
2022/10/28 08:29:15;;;;;;;20.25;5.63;;;;;;;17.05;89.08;101582.22;5063102;28;20284;-81
2022/10/28 08:31:41;;;;;;;21.63;5.90;;;;;;;17.07;88.68;101576.75;5068528;28;20385;-81
2022/10/28 08:34:06;;;;;;;18.20;6.07;;;;;;;17.10;88.64;101589.78;5068830;28;20039;-81
2022/10/28 08:36:32;;;;;;;16.35;6.13;;;;;;;17.12;89.19;101587.81;5069502;28;20107;-81
2022/10/28 08:39:00;;;;;;;18.35;6.00;;;;;;;17.17;89.00;101585.59;5069647;28;20071;-80
2022/10/28 08:41:36;;;;;;;20.85;6.10;;;;;;;17.26;88.55;101587.44;5067480;28;20443;-81
2022/10/28 08:44:33;;;;;;;16.35;5.60;;;;;;;17.34;88.22;101579.59;5061896;28;20043;-81
2022/10/28 08:47:12;;;;;;;19.63;5.50;;;;;;;17.44;87.63;101569.78;5069829;28;20535;-80
2022/10/28 08:49:40;;;;;;;17.35;5.63;;;;;;;17.51;88.17;101565.59;5063026;28;20016;-81
2022/10/28 08:52:35;;;;;;;19.75;6.35;;;;;;;17.64;88.12;101564.47;5068977;28;20016;-81
2022/10/28 08:55:06;;;;;;;19.02;5.80;;;;;;;17.82;86.03;101570.78;5067120;28;20028;-81
2022/10/28 08:57:43;;;;;;;14.90;5.40;;;;;;;17.96;86.01;101577.47;5068017;28;20080;-81
2022/10/28 09:00:18;;;;;;;19.25;5.88;;;;;;;18.12;85.55;101578.56;5067551;28;20115;-80
2022/10/28 09:03:16;;;;;;;19.05;5.78;;;;;;;18.25;84.55;101572.91;5056854;28;20023;-80
2022/10/28 09:05:46;;;;;;;17.33;5.68;;;;;;;18.36;85.39;101575.38;5053498;28;20036;-81
2022/10/28 09:08:23;;;;;;;19.58;5.55;;;;;;;18.45;84.08;101581.69;5068257;28;20028;-80
2022/10/28 09:10:59;;;;;;;15.05;5.22;;;;;;;18.52;83.59;101580.09;5069158;28;20422;-81
2022/10/28 09:13:39;;;;;;;13.35;5.70;;;;;;;18.61;83.05;101581.03;5068371;28;20416;-81
2022/10/28 09:16:14;;;;;;;17.95;5.30;;;;;;;18.73;82.57;101591.38;5066505;28;20024;-81
2022/10/28 09:18:53;;;;;;;15.93;5.10;;;;;;;18.91;81.67;101586.13;5068957;28;20175;-80
2022/10/28 09:21:29;;;;;;;14.80;5.10;;;;;;;19.01;81.44;101592.22;5066796;28;20406;-81
2022/10/28 09:23:57;;;;;;;16.90;5.50;;;;;;;19.16;80.07;101587.19;5054965;28;20029;-81
2022/10/28 09:26:37;;;;;;;19.95;5.07;;;;;;;19.25;80.33;101583.66;5068853;28;20012;-80
2022/10/28 09:29:10;;;;;;;16.88;5.15;;;;;;;19.31;78.92;101596.38;5067295;28;20058;-80
2022/10/28 09:31:39;;;;;;;15.40;4.95;;;;;;;19.32;79.19;101583.88;5067328;28;20698;-81
2022/10/28 09:34:53;;;;;;;20.77;5.55;;;;;;;19.39;81.50;101591.09;5061544;28;20078;-80
2022/10/28 09:37:30;;;;;;;;;;;;;;;19.45;81.94;101599.50;5048987;28;20029;-79
2022/10/28 09:40:14;;;;;;;17.67;5.15;;;;;;;19.35;79.16;101599.56;5061420;28;19912;-79
2022/10/28 09:42:46;;;;;;;17.58;5.45;;;;;;;19.29;78.63;101598.34;5065380;28;20400;-80
2022/10/28 09:45:15;;;;;;;16.90;5.68;;;;;;;19.39;78.19;101601.78;5070959;28;20028;-79
2022/10/28 09:47:46;;;;;;;12.40;4.85;;;;;;;19.48;78.15;101599.19;5072460;28;20166;-81
2022/10/28 09:50:16;;;;;;;17.85;5.38;;;;;;;19.50;77.73;101600.72;5070676;28;20115;-80
2022/10/28 09:52:50;;;;;;;17.27;5.15;;;;;;;19.59;78.50;101602.47;5071717;28;20038;-81
2022/10/28 09:55:19;;;;;;;16.42;4.93;;;;;;;19.64;77.25;101600.22;5066045;28;20024;-81
2022/10/28 09:57:45;;;;;;;19.23;5.18;;;;;;;19.69;76.62;101602.44;5051985;28;20033;-82
2022/10/28 10:00:12;;;;;;;17.00;5.25;;;;;;;19.80;75.82;101610.19;5051838;28;20202;-80
2022/10/28 10:02:39;;;;;;;18.75;5.07;;;;;;;19.89;75.84;101603.06;5062188;28;20489;-80
2022/10/28 10:05:14;;;;;;;14.30;5.30;;;;;;;19.95;75.81;101589.91;5064089;28;20025;-82
2022/10/28 10:08:09;;;;;;;18.65;4.72;;;;;;;20.08;75.32;101592.19;5064449;28;20033;-82
2022/10/28 10:10:40;;;;;;;18.45;5.25;;;;;;;20.14;74.50;101601.41;5063366;28;20040;-81
2022/10/28 10:13:08;;;;;;;17.20;5.20;;;;;;;20.19;74.12;101586.59;5065053;28;20040;-82
2022/10/28 10:15:52;;;;;;;18.05;4.90;;;;;;;20.27;75.43;101591.13;5066717;28;20036;-81
2022/10/28 10:18:24;;;;;;;18.00;5.22;;;;;;;20.32;73.95;101599.50;5064203;28;20028;-81
2022/10/28 10:20:59;;;;;;;13.05;4.78;;;;;;;20.37;74.14;101591.84;5064300;28;20433;-81
2022/10/28 10:23:24;;;;;;;18.92;4.47;;;;;;;20.47;73.65;101592.63;5066256;28;20053;-81
2022/10/28 10:26:03;;;;;;;19.05;5.38;;;;;;;20.58;75.17;101592.34;5065598;28;20779;-81
2022/10/28 10:28:29;;;;;;;23.30;4.80;;;;;;;20.65;71.38;101585.34;5081186;28;20147;-81
2022/10/28 10:31:01;;;;;;;17.85;4.90;;;;;;;20.79;72.45;101585.72;5064950;28;20563;-81
2022/10/28 10:33:38;;;;;;;14.13;4.33;;;;;;;20.88;72.96;101590.13;5065073;28;20064;-81
2022/10/28 10:36:06;;;;;;;22.50;5.05;;;;;;;20.94;70.38;101584.13;5068349;28;20112;-81
2022/10/28 10:38:33;;;;;;;17.00;4.38;;;;;;;20.97;70.80;101573.09;5069358;28;20029;-81
2022/10/28 10:40:59;;;;;;;18.63;5.13;;;;;;;21.08;69.11;101566.56;5070344;28;20028;-81
2022/10/28 10:43:35;;;;;;;23.55;4.55;;;;;;;21.16;69.45;101578.13;5059910;28;20033;-81
2022/10/28 10:46:16;;;;;;;16.40;4.60;;;;;;;21.24;70.21;101567.50;5051059;28;20114;-81
2022/10/28 10:48:43;;;;;;;19.38;5.00;;;;;;;21.33;67.58;101560.28;5050362;28;20025;-81
2022/10/28 10:51:20;;;;;;;17.63;4.75;;;;;;;21.36;69.04;101559.97;5083280;28;20111;-82
2022/10/28 10:53:53;;;;;;;15.30;4.78;;;;;;;21.41;67.87;101565.66;5050174;28;20079;-81
2022/10/28 10:56:25;;;;;;;16.05;4.40;;;;;;;21.49;68.25;101567.50;5052108;28;20044;-82
2022/10/28 10:58:53;;;;;;;12.55;4.15;;;;;;;21.57;66.50;101570.16;5051009;28;20094;-82
2022/10/28 11:01:26;;;;;;;18.42;4.28;;;;;;;21.63;66.96;101574.88;5063856;28;20029;-81
2022/10/28 11:04:06;;;;;;;16.38;4.80;;;;;;;21.74;67.58;101574.53;5072910;28;20038;-81
2022/10/28 11:06:35;;;;;;;19.42;4.57;;;;;;;21.82;65.72;101579.88;5070279;28;20020;-81
2022/10/28 11:09:04;;;;;;;18.17;4.57;;;;;;;21.85;66.33;101576.03;5066878;28;20044;-82
2022/10/28 11:11:32;;;;;;;19.30;4.72;;;;;;;21.89;64.79;101577.34;5070555;28;20123;-82
2022/10/28 11:14:17;;;;;;;17.33;4.53;;;;;;;21.86;65.92;101566.97;5070148;28;20031;-82
2022/10/28 11:16:49;;;;;;;20.65;5.22;;;;;;;21.78;65.18;101562.47;5069020;28;20100;-82
2022/10/28 11:19:34;;;;;;;22.50;5.00;;;;;;;21.70;64.21;101557.13;5070253;28;20050;-82
2022/10/28 11:22:15;;;;;;;16.98;4.60;;;;;;;21.68;64.45;101551.09;5069315;28;20044;-82
2022/10/28 11:24:51;;;;;;;17.08;4.88;;;;;;;21.66;64.49;101552.28;5070896;28;20035;-83
2022/10/28 11:27:30;;;;;;;16.50;4.63;;;;;;;21.64;64.74;101551.59;5069914;28;20063;-82